Time;durP1;ratioP1;P1;durP2;ratioP2;P2;SDS_P1;SDS_P2;PMS_P1;PMS_P2;Temp;Humidity;BMP_temperature;BMP_pressure;BME280_temperature;BME280_humidity;BME280_pressure;Samples;Min_cycle;Max_cycle;Signal;HPM_P1;HPM_P2
2022/12/24 00:00:56;;;;;;;20.58;2.47;;;10.20;99.90;;;;;;4988717;28;20613;-91
2022/12/24 00:03:23;;;;;;;25.30;3.03;;;10.20;99.90;;;;;;4975742;28;20034;-91
2022/12/24 00:05:48;;;;;;;35.05;2.78;;;10.20;99.90;;;;;;4971810;28;20113;-92
2022/12/24 00:08:14;;;;;;;36.30;2.95;;;10.20;99.90;;;;;;4989520;28;20058;-93
2022/12/24 00:10:39;;;;;;;27.77;2.80;;;10.20;99.90;;;;;;4981723;28;20546;-94
2022/12/24 00:13:05;;;;;;;29.10;2.85;;;10.20;99.90;;;;;;4980483;28;20054;-91
2022/12/24 00:15:30;;;;;;;25.42;2.78;;;10.30;99.90;;;;;;4987404;28;20034;-92
2022/12/24 00:17:56;;;;;;;34.25;3.42;;;10.20;99.90;;;;;;4995326;28;20052;-92
2022/12/24 00:20:23;;;;;;;24.27;2.50;;;10.20;99.90;;;;;;4988454;28;20026;-93
2022/12/24 00:22:48;;;;;;;32.90;3.75;;;10.20;99.90;;;;;;5005724;28;20026;-93
2022/12/24 00:25:14;;;;;;;31.48;2.70;;;10.20;99.90;;;;;;4978875;28;20030;-92
2022/12/24 00:27:39;;;;;;;19.08;2.38;;;10.10;99.90;;;;;;4988502;28;20018;-92
2022/12/24 00:30:06;;;;;;;35.33;4.05;;;10.10;99.90;;;;;;4978779;28;20081;-92
2022/12/24 00:32:31;;;;;;;36.88;3.90;;;10.20;99.90;;;;;;4992938;28;20034;-92
2022/12/24 00:34:57;;;;;;;23.90;2.72;;;10.20;99.90;;;;;;4994757;28;20027;-93
2022/12/24 00:37:22;;;;;;;29.20;2.80;;;10.20;99.90;;;;;;4979656;28;20030;-92
2022/12/24 00:39:48;;;;;;;25.08;2.67;;;10.20;99.90;;;;;;4995278;28;20022;-91
2022/12/24 00:42:13;;;;;;;32.92;3.33;;;10.20;99.90;;;;;;4978237;28;20069;-91
2022/12/24 00:44:39;;;;;;;30.45;3.30;;;10.20;99.90;;;;;;4982217;28;20066;-92
2022/12/24 00:47:04;;;;;;;42.30;3.00;;;10.20;99.90;;;;;;4995678;28;20117;-93
2022/12/24 00:49:30;;;;;;;27.60;2.90;;;10.20;99.90;;;;;;4987592;28;20042;-92
2022/12/24 00:51:55;;;;;;;24.02;3.17;;;10.20;99.90;;;;;;4986031;28;20018;-93
2022/12/24 00:54:21;;;;;;;25.98;2.80;;;10.20;99.90;;;;;;4994265;28;20529;-93
2022/12/24 00:56:46;;;;;;;24.92;2.63;;;10.20;99.90;;;;;;4995299;28;20018;-91
2022/12/24 00:59:12;;;;;;;31.40;4.28;;;10.20;99.90;;;;;;4981101;28;20026;-93
2022/12/24 01:01:37;;;;;;;34.30;4.10;;;10.20;99.90;;;;;;4978123;28;20157;-92
2022/12/24 01:06:47;;;;;;;33.47;4.18;;;10.30;99.90;;;;;;4996096;28;20556;-93
2022/12/24 01:09:12;;;;;;;32.00;4.78;;;10.30;99.90;;;;;;4991605;28;20134;-93
2022/12/24 01:11:38;;;;;;;38.15;3.60;;;10.30;99.90;;;;;;5000104;28;20026;-92
2022/12/24 01:14:04;;;;;;;36.42;3.83;;;10.30;99.90;;;;;;4998342;28;20034;-93
2022/12/24 01:16:30;;;;;;;23.85;3.10;;;10.30;99.90;;;;;;5015448;28;20018;-93
2022/12/24 01:18:55;;;;;;;30.80;4.20;;;10.30;99.90;;;;;;4987310;28;20030;-93
2022/12/24 01:21:21;;;;;;;29.23;3.00;;;10.30;99.90;;;;;;5004876;28;20037;-94
2022/12/24 01:23:47;;;;;;;28.67;3.08;;;10.30;99.90;;;;;;4984716;28;20045;-92
2022/12/24 01:26:13;;;;;;;27.55;3.50;;;10.30;99.90;;;;;;5013363;28;20026;-93
2022/12/24 01:28:39;;;;;;;32.55;3.50;;;10.30;99.90;;;;;;4984753;28;20045;-93
2022/12/24 01:31:17;;;;;;;25.95;3.55;;;10.30;99.90;;;;;;4999843;28;20026;-92
2022/12/24 01:33:44;;;;;;;28.25;2.50;;;10.30;99.90;;;;;;5009922;28;20015;-92
2022/12/24 01:36:11;;;;;;;29.90;3.25;;;10.30;99.90;;;;;;5007322;28;20041;-93
2022/12/24 01:38:37;;;;;;;34.83;3.92;;;10.30;99.90;;;;;;4997221;28;20022;-94
2022/12/24 01:43:47;;;;;;;31.02;3.70;;;10.20;99.90;;;;;;4993842;28;20050;-92
2022/12/24 01:46:17;;;;;;;26.70;2.70;;;10.10;99.90;;;;;;5012807;28;20034;-93
2022/12/24 01:48:47;;;;;;;29.60;3.72;;;10.00;99.90;;;;;;4980918;28;20050;-92
2022/12/24 01:51:36;;;;;;;26.55;2.72;;;9.90;99.90;;;;;;4999552;28;20066;-93
2022/12/24 01:54:30;;;;;;;24.90;2.58;;;9.90;99.90;;;;;;4979134;28;20120;-93
2022/12/24 01:57:27;;;;;;;26.75;3.53;;;9.80;99.90;;;;;;4989246;28;20466;-93
2022/12/24 01:59:56;;;;;;;29.60;2.97;;;9.80;99.90;;;;;;4985302;28;20026;-92
2022/12/24 02:02:23;;;;;;;29.67;2.08;;;9.70;99.90;;;;;;4999406;28;20409;-94
2022/12/24 02:04:57;;;;;;;20.65;2.35;;;9.70;99.90;;;;;;4999752;28;20046;-94
2022/12/24 02:07:24;;;;;;;31.40;3.20;;;9.60;99.90;;;;;;4996588;28;20161;-93
2022/12/24 02:09:55;;;;;;;27.33;3.10;;;9.60;99.90;;;;;;4999512;28;20033;-93
2022/12/24 02:12:20;;;;;;;30.20;3.30;;;9.60;99.90;;;;;;4988810;28;20018;-93
2022/12/24 02:14:46;;;;;;;37.40;3.53;;;9.50;99.90;;;;;;5009368;28;20026;-93
2022/12/24 02:17:30;;;;;;;34.45;2.78;;;9.50;99.90;;;;;;4983339;28;20034;-94
2022/12/24 02:20:30;;;;;;;27.48;2.78;;;9.50;99.90;;;;;;5017108;28;20078;-94
2022/12/24 02:23:01;;;;;;;22.05;2.58;;;9.40;99.90;;;;;;4997791;28;20022;-93
2022/12/24 02:25:45;;;;;;;30.20;2.60;;;9.30;99.90;;;;;;4981853;28;20030;-93
2022/12/24 02:28:18;;;;;;;36.25;4.13;;;9.30;99.90;;;;;;4981022;28;20129;-94
2022/12/24 02:31:00;;;;;;;29.55;2.42;;;9.20;99.90;;;;;;4997535;28;20030;-93
2022/12/24 02:33:56;;;;;;;26.58;2.97;;;9.20;99.90;;;;;;4997666;28;20018;-93
2022/12/24 02:36:33;;;;;;;24.73;3.05;;;9.10;99.90;;;;;;4977831;28;20022;-94
2022/12/24 02:39:12;;;;;;;31.15;3.03;;;9.20;99.90;;;;;;4986875;28;20041;-92
2022/12/24 02:44:30;;;;;;;30.88;2.65;;;9.10;99.90;;;;;;4998307;28;20133;-94
2022/12/24 02:46:59;;;;;;;31.92;3.08;;;9.10;99.90;;;;;;4979423;28;20486;-94
2022/12/24 02:49:25;;;;;;;23.70;2.67;;;9.10;99.90;;;;;;4983913;28;20078;-93
2022/12/24 02:51:50;;;;;;;25.80;2.42;;;9.20;99.90;;;;;;4996928;28;20030;-94
2022/12/24 02:54:16;;;;;;;36.90;4.05;;;9.30;99.90;;;;;;5002284;28;20026;-94
2022/12/24 02:57:01;;;;;;;27.85;2.67;;;9.30;99.90;;;;;;4995183;28;20072;-93
2022/12/24 03:00:04;;;;;;;29.10;2.95;;;9.40;99.90;;;;;;4985039;28;20089;-93
2022/12/24 03:03:06;;;;;;;30.15;3.50;;;9.50;99.90;;;;;;4979534;28;20450;-92
2022/12/24 03:05:31;;;;;;;26.90;3.30;;;9.50;99.90;;;;;;4969518;28;20047;-93
2022/12/24 03:08:16;;;;;;;32.10;3.90;;;9.40;99.90;;;;;;5000725;28;20026;-92
2022/12/24 03:11:05;;;;;;;38.25;3.72;;;9.40;99.90;;;;;;5002052;28;20023;-93
2022/12/24 03:13:31;;;;;;;28.33;2.65;;;9.40;99.90;;;;;;4996668;28;20034;-93
2022/12/24 03:15:56;;;;;;;41.15;4.15;;;9.40;99.90;;;;;;5020695;28;20023;-93
2022/12/24 03:18:24;;;;;;;30.95;3.95;;;9.40;99.90;;;;;;4997797;28;20030;-93
2022/12/24 03:21:06;;;;;;;44.25;4.13;;;9.40;99.90;;;;;;4996432;28;20053;-94
2022/12/24 03:23:33;;;;;;;33.40;5.45;;;9.30;99.90;;;;;;4994632;28;20191;-94
2022/12/24 03:26:03;;;;;;;38.65;3.83;;;9.40;99.90;;;;;;4994712;28;20017;-93
2022/12/24 03:28:29;;;;;;;25.38;3.40;;;9.40;99.90;;;;;;4997298;28;20168;-93
2022/12/24 03:30:59;;;;;;;33.70;4.93;;;9.40;99.90;;;;;;4985047;28;20114;-93
2022/12/24 03:33:24;;;;;;;34.22;3.92;;;9.40;99.90;;;;;;5008266;28;20037;-91
2022/12/24 03:35:50;;;;;;;29.80;4.30;;;9.40;99.90;;;;;;4981269;28;20073;-93
2022/12/24 03:38:15;;;;;;;27.42;4.03;;;9.40;99.90;;;;;;5000094;28;20041;-94
2022/12/24 03:40:41;;;;;;;40.28;5.50;;;9.40;99.90;;;;;;4981090;28;20030;-92
2022/12/24 03:43:06;;;;;;;33.65;4.35;;;9.50;99.90;;;;;;5001652;28;20030;-93
2022/12/24 03:45:32;;;;;;;31.63;4.63;;;9.50;99.90;;;;;;4997102;28;20034;-93
2022/12/24 03:47:57;;;;;;;36.75;5.57;;;9.50;99.90;;;;;;4996778;28;20015;-93
2022/12/24 03:50:23;;;;;;;35.53;5.22;;;9.60;99.90;;;;;;4985157;28;20089;-94
2022/12/24 03:52:48;;;;;;;33.75;6.43;;;9.60;99.90;;;;;;4980845;28;20098;-93
2022/12/24 03:55:14;;;;;;;36.28;5.07;;;9.70;99.90;;;;;;4980452;28;20027;-94
2022/12/24 03:57:39;;;;;;;34.45;4.63;;;9.80;99.90;;;;;;4992569;28;20034;-93
2022/12/24 04:00:06;;;;;;;31.13;5.13;;;9.80;99.90;;;;;;4979303;28;20045;-93
2022/12/24 04:02:31;;;;;;;33.25;4.53;;;9.90;99.90;;;;;;4979849;28;20038;-93
2022/12/24 04:04:57;;;;;;;33.53;5.35;;;9.90;99.90;;;;;;4979889;28;20030;-92
2022/12/24 04:07:22;;;;;;;36.17;5.00;;;10.00;99.90;;;;;;4978405;28;20034;-92
2022/12/24 04:09:48;;;;;;;31.83;4.65;;;10.10;99.90;;;;;;4976113;28;20022;-92
2022/12/24 04:12:13;;;;;;;23.15;4.25;;;10.10;99.90;;;;;;4995388;28;20049;-93
2022/12/24 04:14:39;;;;;;;35.63;5.07;;;10.10;99.90;;;;;;4990504;28;20037;-93
2022/12/24 04:17:05;;;;;;;30.20;4.75;;;10.20;99.90;;;;;;4986292;28;20045;-93
2022/12/24 04:19:30;;;;;;;34.42;5.13;;;10.20;99.90;;;;;;4993246;28;20026;-92
2022/12/24 04:21:56;;;;;;;32.42;4.78;;;10.20;99.90;;;;;;4978193;28;20423;-94
2022/12/24 04:24:21;;;;;;;35.15;4.57;;;10.30;99.90;;;;;;4997177;28;20056;-93
2022/12/24 04:26:47;;;;;;;34.65;4.35;;;10.30;99.90;;;;;;4986547;28;20052;-93
2022/12/24 04:29:12;;;;;;;28.15;4.25;;;10.30;99.90;;;;;;4983175;28;20054;-93
2022/12/24 04:31:38;;;;;;;29.50;5.10;;;10.40;99.90;;;;;;4978237;28;20015;-94
2022/12/24 04:34:03;;;;;;;34.65;5.05;;;10.40;99.90;;;;;;4995778;28;20042;-94
2022/12/24 04:36:29;;;;;;;33.58;5.75;;;10.50;99.90;;;;;;4980381;28;20029;-93
2022/12/24 04:38:55;;;;;;;36.97;4.22;;;10.50;99.90;;;;;;4987340;28;20230;-94
2022/12/24 04:41:22;;;;;;;27.75;3.58;;;10.50;99.90;;;;;;4986212;28;20554;-93
2022/12/24 04:43:47;;;;;;;34.25;4.72;;;10.60;99.90;;;;;;4989156;28;20034;-94
2022/12/24 04:46:19;;;;;;;33.90;4.32;;;10.60;99.90;;;;;;4982117;28;20030;-92
2022/12/24 04:48:46;;;;;;;45.22;5.22;;;10.60;99.90;;;;;;4981991;28;20136;-93
2022/12/24 04:51:13;;;;;;;24.67;3.85;;;10.60;99.90;;;;;;4996961;28;20026;-93
2022/12/24 04:53:39;;;;;;;34.33;5.32;;;10.60;99.90;;;;;;5001791;28;20033;-93
2022/12/24 04:56:12;;;;;;;37.50;5.45;;;10.60;99.90;;;;;;4999694;28;20489;-93
2022/12/24 04:58:37;;;;;;;40.03;5.63;;;10.70;99.90;;;;;;5001034;28;20036;-93
2022/12/24 05:01:10;;;;;;;31.02;4.43;;;10.70;99.90;;;;;;4988711;28;20460;-93
2022/12/24 05:03:35;;;;;;;33.42;5.70;;;10.70;99.90;;;;;;4997845;28;20505;-92
2022/12/24 05:06:07;;;;;;;32.47;5.10;;;10.70;99.90;;;;;;4989501;28;20026;-91
2022/12/24 05:08:33;;;;;;;32.23;5.20;;;10.70;99.90;;;;;;4991852;28;20037;-91
2022/12/24 05:11:00;;;;;;;33.97;5.22;;;10.70;99.90;;;;;;4999456;28;20022;-92
2022/12/24 05:13:25;;;;;;;25.52;4.68;;;10.70;99.90;;;;;;4983708;28;20033;-94
2022/12/24 05:15:51;;;;;;;34.30;4.43;;;10.70;99.90;;;;;;4981910;28;20034;-92
2022/12/24 05:18:17;;;;;;;33.20;4.93;;;10.70;99.90;;;;;;4996876;28;20027;-92
2022/12/24 05:20:42;;;;;;;38.42;5.18;;;10.70;99.90;;;;;;4982682;28;20026;-92
2022/12/24 05:26:26;;;;;;;40.38;5.32;;;10.70;99.90;;;;;;5004392;28;20088;-93
2022/12/24 05:28:54;;;;;;;35.67;5.05;;;10.70;99.90;;;;;;4999233;28;20045;-94
2022/12/24 05:31:20;;;;;;;32.00;4.38;;;10.70;99.90;;;;;;5015936;28;20026;-91
2022/12/24 05:33:46;;;;;;;38.22;5.60;;;10.70;99.90;;;;;;4991122;28;20026;-93
2022/12/24 05:36:11;;;;;;;32.70;4.90;;;10.70;99.90;;;;;;4982355;28;20041;-93
2022/12/24 05:38:37;;;;;;;30.13;4.45;;;10.70;99.90;;;;;;4990594;28;20033;-91
2022/12/24 05:41:03;;;;;;;36.63;5.38;;;10.70;99.90;;;;;;5012668;28;20022;-93
2022/12/24 05:43:29;;;;;;;29.17;4.63;;;10.70;99.90;;;;;;4998925;28;20038;-92
2022/12/24 05:46:06;;;;;;;24.58;3.72;;;10.70;99.90;;;;;;4982564;28;20418;-94
2022/12/24 05:48:33;;;;;;;35.47;4.40;;;10.70;99.90;;;;;;4989148;28;20122;-93
2022/12/24 05:50:58;;;;;;;37.25;4.85;;;10.70;99.90;;;;;;4996144;28;20391;-93
2022/12/24 05:53:24;;;;;;;29.42;4.00;;;10.70;99.90;;;;;;4984454;28;20033;-92
2022/12/24 05:55:49;;;;;;;35.40;4.63;;;10.70;99.90;;;;;;4983275;28;20061;-94
2022/12/24 05:58:15;;;;;;;32.38;4.35;;;10.70;99.90;;;;;;4985247;28;20125;-92
2022/12/24 06:00:42;;;;;;;30.77;4.90;;;10.70;99.90;;;;;;4979642;28;20367;-93
2022/12/24 06:03:08;;;;;;;35.50;4.22;;;10.70;99.90;;;;;;4998128;28;20137;-94
2022/12/24 06:05:33;;;;;;;36.65;5.00;;;10.70;99.90;;;;;;4994001;28;20054;-94
2022/12/24 06:07:59;;;;;;;33.80;4.25;;;10.70;99.90;;;;;;4982895;28;20013;-94
2022/12/24 06:10:24;;;;;;;34.25;4.70;;;10.60;99.90;;;;;;4989319;28;20031;-91
2022/12/24 06:12:50;;;;;;;30.95;4.93;;;10.60;99.90;;;;;;4997771;28;20022;-92
2022/12/24 06:15:16;;;;;;;26.35;4.47;;;10.60;99.90;;;;;;4991104;28;20034;-92
2022/12/24 06:17:41;;;;;;;30.42;5.07;;;10.50;99.90;;;;;;4995286;28;20091;-93
2022/12/24 06:20:07;;;;;;;34.25;5.55;;;10.50;99.90;;;;;;4980414;28;20038;-92
2022/12/24 06:22:33;;;;;;;32.22;5.65;;;10.50;99.90;;;;;;4970869;28;20030;-93
2022/12/24 06:24:58;;;;;;;27.27;4.10;;;10.50;99.90;;;;;;4978629;28;20034;-92
2022/12/24 06:27:24;;;;;;;47.72;6.30;;;10.40;99.90;;;;;;4981404;28;20041;-93
2022/12/24 06:29:49;;;;;;;30.98;6.30;;;10.50;99.90;;;;;;4976290;28;20121;-93
2022/12/24 06:32:15;;;;;;;39.35;7.32;;;10.50;99.90;;;;;;4996761;28;20030;-92
2022/12/24 06:34:41;;;;;;;28.77;4.93;;;10.40;99.90;;;;;;4979993;28;20034;-92
2022/12/24 06:37:06;;;;;;;34.70;5.70;;;10.40;99.90;;;;;;4980771;28;20018;-92
2022/12/24 06:39:32;;;;;;;25.17;4.47;;;10.40;99.90;;;;;;4992646;28;20030;-92
2022/12/24 06:41:57;;;;;;;28.88;5.25;;;10.40;99.90;;;;;;4981530;28;20521;-91
2022/12/24 06:44:23;;;;;;;36.97;5.68;;;10.40;99.90;;;;;;4978794;28;20061;-93
2022/12/24 06:46:48;;;;;;;33.88;5.20;;;10.50;99.90;;;;;;4984079;28;20134;-92
2022/12/24 06:49:14;;;;;;;43.63;6.40;;;10.50;99.90;;;;;;4978879;28;20050;-92
2022/12/24 06:51:40;;;;;;;30.35;4.10;;;10.50;99.90;;;;;;4981277;28;20033;-93
2022/12/24 06:54:06;;;;;;;38.08;5.22;;;10.50;99.90;;;;;;4995072;28;20031;-93
2022/12/24 06:56:31;;;;;;;42.17;5.63;;;10.50;99.90;;;;;;4975272;28;20022;-94
2022/12/24 06:58:57;;;;;;;33.50;5.03;;;10.50;99.90;;;;;;4992228;28;20030;-93
2022/12/24 07:01:23;;;;;;;27.80;3.97;;;10.50;99.90;;;;;;4994675;28;20042;-93
2022/12/24 07:03:49;;;;;;;40.58;5.38;;;10.40;99.90;;;;;;4979545;28;20463;-92
2022/12/24 07:06:27;;;;;;;35.72;4.90;;;10.40;99.90;;;;;;4978462;28;20038;-94
2022/12/24 07:08:53;;;;;;;33.70;4.65;;;10.30;99.90;;;;;;4977292;28;20034;-93
2022/12/24 07:11:19;;;;;;;25.15;4.22;;;10.30;99.90;;;;;;4979348;28;20027;-94
2022/12/24 07:13:46;;;;;;;38.45;5.20;;;10.30;99.90;;;;;;4980142;28;20063;-94
2022/12/24 07:16:11;;;;;;;34.83;4.82;;;10.30;99.90;;;;;;5009616;28;20058;-94
2022/12/24 07:18:37;;;;;;;30.55;4.88;;;10.30;99.90;;;;;;5005351;28;20077;-94
2022/12/24 07:21:06;;;;;;;35.75;5.05;;;10.30;99.90;;;;;;4973550;28;20083;-93
2022/12/24 07:23:32;;;;;;;32.70;4.93;;;10.30;99.90;;;;;;4982921;28;20069;-94
2022/12/24 07:26:03;;;;;;;30.27;4.63;;;10.30;99.90;;;;;;4982062;28;20783;-93
2022/12/24 07:28:29;;;;;;;29.00;5.13;;;10.30;99.90;;;;;;4983631;28;20022;-94
2022/12/24 07:30:58;;;;;;;23.30;4.47;;;10.30;99.90;;;;;;4977478;28;20077;-94
2022/12/24 07:33:24;;;;;;;37.75;5.38;;;10.40;99.90;;;;;;4980325;28;20022;-94
2022/12/24 07:36:00;;;;;;;31.20;5.55;;;10.40;99.90;;;;;;4983385;28;20065;-93
2022/12/24 07:38:26;;;;;;;25.77;4.43;;;10.40;99.90;;;;;;4989664;28;20026;-94
2022/12/24 07:40:51;;;;;;;23.25;3.97;;;10.40;99.90;;;;;;4988442;28;20027;-93
2022/12/24 07:43:17;;;;;;;34.40;5.03;;;10.30;99.90;;;;;;5022987;28;20098;-94
2022/12/24 07:45:43;;;;;;;29.77;4.50;;;10.40;99.90;;;;;;5003118;28;20030;-93
2022/12/24 07:48:08;;;;;;;29.73;5.18;;;10.30;99.90;;;;;;4995597;28;20109;-94
2022/12/24 07:50:34;;;;;;;29.98;4.28;;;10.30;99.90;;;;;;4980951;28;20495;-93
2022/12/24 07:52:59;;;;;;;30.58;4.40;;;10.20;99.90;;;;;;5003575;28;20037;-94
2022/12/24 07:55:25;;;;;;;27.70;3.97;;;10.20;99.90;;;;;;4999056;28;20034;-94
2022/12/24 07:57:50;;;;;;;30.67;4.28;;;10.20;99.90;;;;;;4984145;28;20037;-93
2022/12/24 08:00:16;;;;;;;30.40;4.60;;;10.20;99.90;;;;;;5012375;28;20088;-94
2022/12/24 08:02:42;;;;;;;34.03;4.38;;;10.20;99.90;;;;;;4994845;28;20050;-93
2022/12/24 08:05:07;;;;;;;30.10;5.38;;;10.20;99.90;;;;;;4992624;28;20043;-93
2022/12/24 08:07:33;;;;;;;30.02;4.57;;;10.10;99.90;;;;;;4992470;28;20027;-93
2022/12/24 08:09:58;;;;;;;27.27;4.13;;;10.10;99.90;;;;;;5017489;28;20026;-93
2022/12/24 08:12:24;;;;;;;36.17;4.70;;;10.10;99.90;;;;;;4983122;28;20030;-94
2022/12/24 08:14:50;;;;;;;28.42;4.07;;;10.20;99.90;;;;;;4997202;28;20042;-93
2022/12/24 08:17:15;;;;;;;33.65;4.13;;;10.20;99.90;;;;;;4993723;28;20026;-94
2022/12/24 08:19:41;;;;;;;32.25;4.10;;;10.20;99.90;;;;;;4979381;28;20034;-94
2022/12/24 08:22:06;;;;;;;35.47;5.88;;;10.20;99.90;;;;;;5008175;28;20089;-94
2022/12/24 08:24:32;;;;;;;28.80;4.30;;;10.20;99.90;;;;;;4979725;28;20034;-94
2022/12/24 08:26:57;;;;;;;33.53;4.60;;;10.30;99.90;;;;;;4979911;28;20403;-95
2022/12/24 08:29:23;;;;;;;34.35;5.43;;;10.30;99.90;;;;;;4980304;28;20489;-95
2022/12/24 08:31:48;;;;;;;33.75;4.43;;;10.40;99.90;;;;;;4985818;28;20022;-94
2022/12/24 08:34:14;;;;;;;26.27;3.85;;;10.40;99.90;;;;;;4979974;28;20034;-95
2022/12/24 08:36:40;;;;;;;34.33;5.28;;;10.40;99.90;;;;;;4978630;28;20557;-94
2022/12/24 08:39:07;;;;;;;35.58;5.50;;;10.40;99.90;;;;;;4979674;28;20038;-94
2022/12/24 08:41:33;;;;;;;35.95;4.93;;;10.40;99.90;;;;;;4984122;28;20063;-93
2022/12/24 08:43:59;;;;;;;32.67;5.30;;;10.50;99.90;;;;;;4982870;28;20045;-95
2022/12/24 08:46:25;;;;;;;39.50;6.10;;;10.50;99.90;;;;;;4979759;28;20022;-96
2022/12/24 08:48:50;;;;;;;38.63;6.43;;;10.50;99.90;;;;;;4990283;28;20058;-94
2022/12/24 08:51:17;;;;;;;33.47;6.05;;;10.50;99.90;;;;;;4997277;28;20027;-95
2022/12/24 08:53:43;;;;;;;33.28;6.38;;;10.50;99.90;;;;;;4999859;28;20439;-94
2022/12/24 08:56:10;;;;;;;33.13;5.70;;;10.60;99.90;;;;;;4984883;28;20022;-94
2022/12/24 08:58:35;;;;;;;33.20;5.68;;;10.60;99.90;;;;;;4985997;28;20026;-95
2022/12/24 09:01:13;;;;;;;30.00;6.03;;;10.60;99.90;;;;;;4994170;28;20125;-94
2022/12/24 09:03:38;;;;;;;48.35;6.55;;;10.60;99.90;;;;;;4970615;28;20027;-95
2022/12/24 09:06:05;;;;;;;34.60;5.80;;;10.50;99.90;;;;;;4989119;28;20096;-93
2022/12/24 09:08:31;;;;;;;31.35;5.68;;;10.50;99.90;;;;;;4978501;28;20027;-94
2022/12/24 09:11:03;;;;;;;38.45;5.72;;;10.60;99.90;;;;;;4997050;28;20133;-94
2022/12/24 09:13:28;;;;;;;34.00;6.40;;;10.60;99.90;;;;;;5017778;28;20090;-95
2022/12/24 09:15:54;;;;;;;39.50;7.03;;;10.60;99.90;;;;;;4980986;28;20053;-95
2022/12/24 09:18:20;;;;;;;30.65;6.15;;;10.60;99.90;;;;;;4981942;28;20483;-94
2022/12/24 09:20:46;;;;;;;39.55;6.05;;;10.60;99.90;;;;;;4995833;28;20022;-94
2022/12/24 09:23:11;;;;;;;34.50;5.28;;;10.70;99.90;;;;;;4989368;28;20390;-93
2022/12/24 09:25:43;;;;;;;37.42;6.03;;;10.70;99.90;;;;;;4982869;28;20547;-94
2022/12/24 09:28:09;;;;;;;37.55;6.80;;;10.70;99.90;;;;;;4982949;28;20023;-94
2022/12/24 09:30:36;;;;;;;25.70;5.68;;;10.70;99.90;;;;;;4984252;28;20038;-94
2022/12/24 09:33:02;;;;;;;30.33;7.00;;;10.70;99.90;;;;;;4981591;28;20479;-94
2022/12/24 09:35:27;;;;;;;37.80;6.22;;;10.70;99.90;;;;;;4989125;28;20030;-94
2022/12/24 09:38:01;;;;;;;37.05;6.70;;;10.80;99.90;;;;;;4983800;28;20019;-94
2022/12/24 09:40:41;;;;;;;34.88;5.78;;;10.80;99.90;;;;;;4998539;28;20041;-95
2022/12/24 09:43:33;;;;;;;36.47;5.90;;;10.80;99.90;;;;;;5028811;28;20025;-95
2022/12/24 09:46:08;;;;;;;31.85;5.90;;;10.80;99.90;;;;;;4992873;28;20037;-91
2022/12/24 09:48:38;;;;;;;39.55;6.60;;;10.90;99.90;;;;;;4995576;28;20050;-94
2022/12/24 09:51:15;;;;;;;34.58;4.88;;;10.90;99.90;;;;;;4986700;28;20559;-92
2022/12/24 09:53:52;;;;;;;33.58;4.90;;;11.00;99.90;;;;;;4961882;28;20208;-95
2022/12/24 09:56:26;;;;;;;29.42;5.55;;;11.10;99.90;;;;;;4961429;28;20113;-96
2022/12/24 09:59:00;;;;;;;36.78;6.35;;;11.10;99.90;;;;;;4956351;28;20033;-93
2022/12/24 10:01:29;;;;;;;29.73;5.53;;;11.20;99.90;;;;;;4978047;28;20569;-94
2022/12/24 10:04:01;;;;;;;31.45;5.18;;;11.20;99.90;;;;;;4976817;28;20034;-96
2022/12/24 10:06:37;;;;;;;26.70;4.53;;;11.20;99.90;;;;;;4974673;28;20034;-95
2022/12/24 10:09:21;;;;;;;37.78;5.22;;;11.30;99.90;;;;;;4975982;28;20034;-94
2022/12/24 10:11:55;;;;;;;34.42;5.05;;;11.30;99.90;;;;;;4991471;28;20038;-95
2022/12/24 10:14:46;;;;;;;32.03;6.18;;;11.30;99.90;;;;;;4942387;28;20031;-95
2022/12/24 10:17:40;;;;;;;34.13;5.15;;;11.40;99.90;;;;;;4949730;28;20041;-94
2022/12/24 10:20:31;;;;;;;26.02;4.18;;;11.40;99.90;;;;;;4959085;28;20027;-95
2022/12/24 10:23:15;;;;;;;33.35;4.97;;;11.40;99.90;;;;;;4947088;28;20538;-93
2022/12/24 10:26:08;;;;;;;30.73;5.35;;;11.30;99.90;;;;;;4973515;28;20094;-95
2022/12/24 10:28:54;;;;;;;24.92;4.97;;;11.20;99.90;;;;;;4966518;28;20062;-95
2022/12/24 10:31:25;;;;;;;27.98;4.72;;;11.20;99.90;;;;;;4972045;28;20138;-95
2022/12/24 10:33:58;;;;;;;39.47;6.00;;;11.10;99.90;;;;;;4964408;28;20056;-94
2022/12/24 10:36:27;;;;;;;28.73;4.50;;;11.10;99.90;;;;;;4972373;28;20039;-95
2022/12/24 10:38:53;;;;;;;32.92;5.93;;;11.10;99.90;;;;;;4968364;28;20030;-96
2022/12/24 10:41:19;;;;;;;32.75;5.22;;;11.00;99.90;;;;;;4974235;28;20047;-96
2022/12/24 10:43:46;;;;;;;36.60;5.45;;;11.00;99.90;;;;;;4942196;29;20066;-95
2022/12/24 10:46:28;;;;;;;27.05;4.80;;;11.00;99.90;;;;;;4947776;28;20050;-94
2022/12/24 10:48:59;;;;;;;28.15;4.95;;;11.00;99.90;;;;;;4990860;28;20050;-96
2022/12/24 10:51:50;;;;;;;23.15;4.57;;;10.90;99.90;;;;;;4993761;28;20372;-95
2022/12/24 10:54:21;;;;;;;32.88;4.95;;;10.90;99.90;;;;;;4991817;28;20030;-96
2022/12/24 10:56:51;;;;;;;34.28;5.13;;;10.90;99.90;;;;;;4997226;28;20018;-95
2022/12/24 10:59:27;;;;;;;20.83;4.15;;;11.00;99.90;;;;;;4975647;28;20037;-95
2022/12/24 11:01:55;;;;;;;35.40;5.40;;;11.10;99.90;;;;;;4997298;28;20018;-95
2022/12/24 11:04:24;;;;;;;33.67;4.50;;;11.10;99.90;;;;;;5013960;28;20050;-95
2022/12/24 11:06:55;;;;;;;27.05;4.82;;;11.00;99.90;;;;;;5011318;28;20033;-96
2022/12/24 11:09:27;;;;;;;31.27;4.43;;;11.00;99.90;;;;;;4997240;28;20038;-94
2022/12/24 11:11:55;;;;;;;27.98;3.75;;;11.00;99.90;;;;;;4985737;28;20037;-95
2022/12/24 11:14:21;;;;;;;26.42;3.95;;;11.00;99.90;;;;;;5013202;28;20121;-95
2022/12/24 11:16:54;;;;;;;30.92;5.30;;;11.00;99.90;;;;;;4997565;28;20483;-94
2022/12/24 11:19:32;;;;;;;34.53;4.07;;;11.00;99.90;;;;;;4997282;28;20030;-95
2022/12/24 11:22:06;;;;;;;34.00;4.50;;;11.00;99.90;;;;;;4997945;28;20045;-95
2022/12/24 11:24:36;;;;;;;29.10;3.85;;;11.00;99.90;;;;;;4996613;28;20050;-94
2022/12/24 11:27:39;;;;;;;37.67;4.25;;;11.00;99.90;;;;;;4996522;28;20033;-95
2022/12/24 11:30:31;;;;;;;24.57;4.03;;;11.10;99.90;;;;;;4998111;28;20045;-95
2022/12/24 11:32:59;;;;;;;27.65;3.60;;;11.10;99.90;;;;;;4985361;28;20089;-91
2022/12/24 11:35:25;;;;;;;26.27;3.00;;;11.10;99.90;;;;;;4996688;28;20478;-94
2022/12/24 11:38:00;;;;;;;29.58;4.18;;;11.10;99.90;;;;;;4968507;28;20054;-95
2022/12/24 11:40:33;;;;;;;25.98;3.60;;;11.10;99.90;;;;;;5020113;28;20030;-94
2022/12/24 11:43:00;;;;;;;41.03;5.60;;;11.10;99.90;;;;;;5012622;28;20058;-95
2022/12/24 11:45:28;;;;;;;32.28;4.88;;;11.20;99.90;;;;;;4994359;28;20053;-94
2022/12/24 11:47:55;;;;;;;30.13;4.53;;;11.20;99.90;;;;;;5021377;28;20026;-94
2022/12/24 11:50:31;;;;;;;25.52;4.13;;;11.20;99.90;;;;;;4947905;29;20038;-94
2022/12/24 11:53:10;;;;;;;27.00;4.68;;;11.30;99.90;;;;;;4967759;28;20030;-95
2022/12/24 11:55:48;;;;;;;34.08;5.18;;;11.30;99.90;;;;;;4972305;28;20030;-95
2022/12/24 11:58:32;;;;;;;31.63;4.80;;;11.40;99.90;;;;;;4940208;28;20012;-94
2022/12/24 12:01:24;;;;;;;33.92;4.97;;;11.40;99.90;;;;;;4955410;28;20020;-94
2022/12/24 12:04:14;;;;;;;32.25;4.50;;;11.30;99.90;;;;;;4939136;28;20035;-95
2022/12/24 12:06:50;;;;;;;29.88;4.88;;;11.30;99.90;;;;;;4958649;28;20396;-93
2022/12/24 12:09:26;;;;;;;29.60;4.35;;;11.30;99.90;;;;;;4958741;28;20081;-94
2022/12/24 12:11:57;;;;;;;26.20;3.20;;;11.20;99.90;;;;;;4958170;28;20049;-95
2022/12/24 12:14:32;;;;;;;18.10;3.45;;;11.20;99.90;;;;;;4957395;28;20444;-94
2022/12/24 12:17:18;;;;;;;28.55;3.50;;;11.20;99.90;;;;;;4944674;28;20044;-95
2022/12/24 12:19:54;;;;;;;24.75;4.20;;;11.20;99.90;;;;;;4939582;29;20039;-94
2022/12/24 12:22:37;;;;;;;32.97;5.03;;;11.20;99.90;;;;;;4934689;29;20118;-93
2022/12/24 12:25:16;;;;;;;28.98;3.30;;;11.20;99.90;;;;;;4942123;28;20027;-96
2022/12/24 12:27:49;;;;;;;26.10;3.33;;;11.10;99.90;;;;;;4956741;28;20070;-95
2022/12/24 12:30:19;;;;;;;24.00;3.45;;;11.10;99.90;;;;;;4944860;29;20070;-94
2022/12/24 12:33:14;;;;;;;18.48;2.33;;;11.10;99.90;;;;;;4953865;28;20075;-95
2022/12/24 12:35:42;;;;;;;25.80;3.13;;;11.20;99.90;;;;;;4939668;28;20031;-94
2022/12/24 12:38:30;;;;;;;30.80;3.55;;;11.20;99.90;;;;;;4970809;28;20039;-95
2022/12/24 12:41:02;;;;;;;21.38;2.90;;;11.30;99.90;;;;;;4939341;29;20066;-95
2022/12/24 12:43:52;;;;;;;29.05;3.45;;;11.30;99.90;;;;;;4954835;28;20078;-95
2022/12/24 12:46:39;;;;;;;22.33;2.95;;;11.40;99.90;;;;;;4956800;28;20043;-95
2022/12/24 12:49:18;;;;;;;20.83;2.78;;;11.40;99.90;;;;;;4972357;28;20043;-95
2022/12/24 12:52:08;;;;;;;30.90;3.80;;;11.40;99.90;;;;;;4959197;29;20027;-95
2022/12/24 12:54:51;;;;;;;25.33;2.75;;;11.40;99.90;;;;;;4960927;28;20086;-96
2022/12/24 12:57:22;;;;;;;27.90;3.45;;;11.30;99.90;;;;;;4940347;28;20031;-94
2022/12/24 13:00:02;;;;;;;23.83;3.08;;;11.30;99.90;;;;;;4964480;28;20062;-96
2022/12/24 13:02:58;;;;;;;22.83;2.83;;;11.40;99.90;;;;;;4945973;29;20066;-95
2022/12/24 13:05:53;;;;;;;20.67;3.15;;;11.60;99.90;;;;;;4944447;28;20031;-96